sensor_id;sensor_type;location;lat;lon;timestamp;pressure;altitude;pressure_sealevel;temperature;humidity
76815;BME280;65768;49.906;19.384;2023-04-01T00:01:12;96565.88;;;8.76;72.18
76815;BME280;65768;49.906;19.384;2023-04-01T00:03:45;96565.26;;;8.73;72.31
76815;BME280;65768;49.906;19.384;2023-04-01T00:06:15;96560.52;;;8.66;72.81
76815;BME280;65768;49.906;19.384;2023-04-01T00:08:44;96552.67;;;8.58;72.80
76815;BME280;65768;49.906;19.384;2023-04-01T00:11:14;96551.86;;;8.56;73.38
76815;BME280;65768;49.906;19.384;2023-04-01T00:13:43;96547.23;;;8.52;73.42
76815;BME280;65768;49.906;19.384;2023-04-01T00:16:11;96543.04;;;8.54;73.90
76815;BME280;65768;49.906;19.384;2023-04-01T00:18:40;96539.54;;;8.55;73.75
76815;BME280;65768;49.906;19.384;2023-04-01T00:21:09;96534.77;;;8.50;73.90
76815;BME280;65768;49.906;19.384;2023-04-01T00:23:38;96538.13;;;8.46;74.11
76815;BME280;65768;49.906;19.384;2023-04-01T00:26:07;96537.38;;;8.49;73.96
76815;BME280;65768;49.906;19.384;2023-04-01T00:28:35;96542.52;;;8.53;73.82
76815;BME280;65768;49.906;19.384;2023-04-01T00:31:05;96542.91;;;8.61;73.47
76815;BME280;65768;49.906;19.384;2023-04-01T00:33:34;96542.55;;;8.61;73.77
76815;BME280;65768;49.906;19.384;2023-04-01T00:36:07;96548.05;;;8.64;73.57
76815;BME280;65768;49.906;19.384;2023-04-01T00:38:36;96551.26;;;8.69;73.53
76815;BME280;65768;49.906;19.384;2023-04-01T00:41:06;96547.06;;;8.71;73.67
76815;BME280;65768;49.906;19.384;2023-04-01T00:43:34;96548.23;;;8.73;73.45
76815;BME280;65768;49.906;19.384;2023-04-01T00:46:03;96539.91;;;8.72;73.19
76815;BME280;65768;49.906;19.384;2023-04-01T00:48:34;96539.60;;;8.70;73.51
76815;BME280;65768;49.906;19.384;2023-04-01T00:51:06;96541.27;;;8.65;73.66
76815;BME280;65768;49.906;19.384;2023-04-01T00:53:43;96537.78;;;8.65;73.91
76815;BME280;65768;49.906;19.384;2023-04-01T00:56:30;96530.79;;;8.67;73.96
76815;BME280;65768;49.906;19.384;2023-04-01T00:59:04;96537.30;;;8.72;73.51
76815;BME280;65768;49.906;19.384;2023-04-01T01:01:36;96539.02;;;8.74;73.56
76815;BME280;65768;49.906;19.384;2023-04-01T01:04:05;96538.26;;;8.76;73.08
76815;BME280;65768;49.906;19.384;2023-04-01T01:06:50;96539.35;;;8.74;73.54
76815;BME280;65768;49.906;19.384;2023-04-01T01:15:44;96548.70;;;8.84;72.92
76815;BME280;65768;49.906;19.384;2023-04-01T01:21:30;96549.34;;;8.87;72.99
76815;BME280;65768;49.906;19.384;2023-04-01T01:33:18;96554.52;;;8.89;73.02
76815;BME280;65768;49.906;19.384;2023-04-01T01:35:54;96549.12;;;8.89;72.85
76815;BME280;65768;49.906;19.384;2023-04-01T01:38:27;96551.71;;;8.90;73.12
76815;BME280;65768;49.906;19.384;2023-04-01T01:40:59;96553.45;;;8.90;72.99
76815;BME280;65768;49.906;19.384;2023-04-01T01:43:36;96545.11;;;8.82;73.47
76815;BME280;65768;49.906;19.384;2023-04-01T01:46:09;96548.15;;;8.76;73.60
76815;BME280;65768;49.906;19.384;2023-04-01T01:48:41;96548.88;;;8.66;73.90
76815;BME280;65768;49.906;19.384;2023-04-01T01:51:11;96550.53;;;8.61;74.29
76815;BME280;65768;49.906;19.384;2023-04-01T01:53:40;96548.33;;;8.59;74.11
76815;BME280;65768;49.906;19.384;2023-04-01T01:56:10;96547.23;;;8.62;74.42
76815;BME280;65768;49.906;19.384;2023-04-01T01:58:44;96547.34;;;8.56;74.21
76815;BME280;65768;49.906;19.384;2023-04-01T02:01:17;96543.86;;;8.47;74.93
76815;BME280;65768;49.906;19.384;2023-04-01T02:03:48;96546.70;;;8.43;75.09
76815;BME280;65768;49.906;19.384;2023-04-01T02:06:21;96551.07;;;8.41;74.83
76815;BME280;65768;49.906;19.384;2023-04-01T02:09:08;96551.90;;;8.44;75.10
76815;BME280;65768;49.906;19.384;2023-04-01T02:11:48;96552.16;;;8.48;74.90
76815;BME280;65768;49.906;19.384;2023-04-01T02:14:20;96559.45;;;8.58;75.03
76815;BME280;65768;49.906;19.384;2023-04-01T02:17:24;96563.19;;;8.63;74.67
76815;BME280;65768;49.906;19.384;2023-04-01T02:20:24;96560.77;;;8.72;74.71
76815;BME280;65768;49.906;19.384;2023-04-01T02:22:54;96566.80;;;8.73;74.49
76815;BME280;65768;49.906;19.384;2023-04-01T02:25:30;96570.67;;;8.80;74.40
76815;BME280;65768;49.906;19.384;2023-04-01T02:28:05;96572.34;;;8.84;74.19
76815;BME280;65768;49.906;19.384;2023-04-01T02:30:36;96578.29;;;8.91;73.91
76815;BME280;65768;49.906;19.384;2023-04-01T02:33:07;96580.11;;;8.95;73.97
76815;BME280;65768;49.906;19.384;2023-04-01T02:35:36;96580.59;;;8.97;73.65
76815;BME280;65768;49.906;19.384;2023-04-01T02:38:06;96583.33;;;9.00;74.18
76815;BME280;65768;49.906;19.384;2023-04-01T02:40:43;96581.98;;;8.97;73.99
76815;BME280;65768;49.906;19.384;2023-04-01T02:43:12;96585.98;;;8.97;74.23
76815;BME280;65768;49.906;19.384;2023-04-01T02:45:40;96587.24;;;8.95;74.25
76815;BME280;65768;49.906;19.384;2023-04-01T02:48:08;96586.36;;;8.95;74.27
76815;BME280;65768;49.906;19.384;2023-04-01T02:50:37;96587.64;;;8.92;74.39
76815;BME280;65768;49.906;19.384;2023-04-01T02:53:06;96587.92;;;8.95;74.47
76815;BME280;65768;49.906;19.384;2023-04-01T02:55:35;96583.98;;;8.93;74.65
76815;BME280;65768;49.906;19.384;2023-04-01T02:58:04;96591.71;;;8.88;74.91
76815;BME280;65768;49.906;19.384;2023-04-01T03:00:33;96591.56;;;8.87;74.87
76815;BME280;65768;49.906;19.384;2023-04-01T03:03:01;96586.52;;;8.88;74.82
76815;BME280;65768;49.906;19.384;2023-04-01T03:05:30;96583.57;;;8.87;74.90
76815;BME280;65768;49.906;19.384;2023-04-01T03:07:58;96584.55;;;8.82;75.10
76815;BME280;65768;49.906;19.384;2023-04-01T03:10:26;96584.35;;;8.83;75.01
76815;BME280;65768;49.906;19.384;2023-04-01T03:12:56;96584.65;;;8.76;75.51
76815;BME280;65768;49.906;19.384;2023-04-01T03:15:24;96581.77;;;8.72;75.03
76815;BME280;65768;49.906;19.384;2023-04-01T03:17:54;96582.85;;;8.70;75.33
76815;BME280;65768;49.906;19.384;2023-04-01T03:20:22;96585.25;;;8.71;75.20
76815;BME280;65768;49.906;19.384;2023-04-01T03:22:50;96581.46;;;8.70;75.10
76815;BME280;65768;49.906;19.384;2023-04-01T03:25:19;96579.00;;;8.72;74.94
76815;BME280;65768;49.906;19.384;2023-04-01T03:27:48;96575.31;;;8.73;74.90
76815;BME280;65768;49.906;19.384;2023-04-01T03:30:16;96576.41;;;8.70;75.21
76815;BME280;65768;49.906;19.384;2023-04-01T03:32:44;96575.77;;;8.68;75.35
76815;BME280;65768;49.906;19.384;2023-04-01T03:35:13;96576.26;;;8.70;75.41
76815;BME280;65768;49.906;19.384;2023-04-01T03:37:41;96574.97;;;8.73;75.40
76815;BME280;65768;49.906;19.384;2023-04-01T03:40:10;96573.58;;;8.74;75.24
76815;BME280;65768;49.906;19.384;2023-04-01T03:42:39;96572.10;;;8.77;75.24
76815;BME280;65768;49.906;19.384;2023-04-01T03:45:07;96570.96;;;8.82;75.10
76815;BME280;65768;49.906;19.384;2023-04-01T03:47:36;96570.75;;;8.85;75.00
76815;BME280;65768;49.906;19.384;2023-04-01T03:50:05;96573.86;;;8.86;75.29
76815;BME280;65768;49.906;19.384;2023-04-01T03:52:34;96575.42;;;8.86;74.91
76815;BME280;65768;49.906;19.384;2023-04-01T03:55:03;96577.11;;;8.88;74.76
76815;BME280;65768;49.906;19.384;2023-04-01T03:57:31;96585.67;;;8.86;74.90
76815;BME280;65768;49.906;19.384;2023-04-01T04:00:01;96591.66;;;8.91;74.99
76815;BME280;65768;49.906;19.384;2023-04-01T04:02:29;96595.19;;;8.88;75.29
76815;BME280;65768;49.906;19.384;2023-04-01T04:04:58;96594.86;;;8.88;75.61
76815;BME280;65768;49.906;19.384;2023-04-01T04:07:26;96600.50;;;8.83;76.26
76815;BME280;65768;49.906;19.384;2023-04-01T04:09:54;96597.77;;;8.81;76.54
76815;BME280;65768;49.906;19.384;2023-04-01T04:12:23;96597.40;;;8.73;77.69
76815;BME280;65768;49.906;19.384;2023-04-01T04:14:51;96598.15;;;8.69;78.26
76815;BME280;65768;49.906;19.384;2023-04-01T04:17:20;96599.63;;;8.65;78.47
76815;BME280;65768;49.906;19.384;2023-04-01T04:19:48;96598.46;;;8.62;78.65
76815;BME280;65768;49.906;19.384;2023-04-01T04:22:16;96597.48;;;8.58;79.22
76815;BME280;65768;49.906;19.384;2023-04-01T04:24:44;96599.17;;;8.52;79.86
76815;BME280;65768;49.906;19.384;2023-04-01T04:27:12;96594.36;;;8.48;80.57
76815;BME280;65768;49.906;19.384;2023-04-01T04:29:42;96595.89;;;8.39;80.78
76815;BME280;65768;49.906;19.384;2023-04-01T04:32:11;96598.98;;;8.31;81.57
76815;BME280;65768;49.906;19.384;2023-04-01T04:34:40;96596.98;;;8.25;82.10
76815;BME280;65768;49.906;19.384;2023-04-01T04:37:09;96590.70;;;8.17;82.07
76815;BME280;65768;49.906;19.384;2023-04-01T04:39:37;96587.02;;;8.08;82.43
76815;BME280;65768;49.906;19.384;2023-04-01T04:42:05;96586.98;;;8.00;83.12
76815;BME280;65768;49.906;19.384;2023-04-01T04:44:33;96591.00;;;7.98;83.16
76815;BME280;65768;49.906;19.384;2023-04-01T04:47:02;96590.14;;;7.98;83.10
76815;BME280;65768;49.906;19.384;2023-04-01T04:49:30;96592.55;;;7.99;83.22
76815;BME280;65768;49.906;19.384;2023-04-01T04:51:59;96591.38;;;8.07;82.96
76815;BME280;65768;49.906;19.384;2023-04-01T04:54:27;96596.40;;;8.18;82.05
76815;BME280;65768;49.906;19.384;2023-04-01T04:56:55;96596.78;;;8.27;82.26
76815;BME280;65768;49.906;19.384;2023-04-01T04:59:24;96592.98;;;8.37;81.76
76815;BME280;65768;49.906;19.384;2023-04-01T05:01:53;96590.48;;;8.51;81.18
76815;BME280;65768;49.906;19.384;2023-04-01T05:04:21;96589.35;;;8.66;80.54
76815;BME280;65768;49.906;19.384;2023-04-01T05:06:49;96591.80;;;8.74;80.56
76815;BME280;65768;49.906;19.384;2023-04-01T05:09:17;96593.80;;;8.79;80.12
76815;BME280;65768;49.906;19.384;2023-04-01T05:11:45;96590.24;;;8.83;80.07
76815;BME280;65768;49.906;19.384;2023-04-01T05:14:17;96593.65;;;8.87;79.34
76815;BME280;65768;49.906;19.384;2023-04-01T05:16:47;96590.22;;;8.93;79.13
76815;BME280;65768;49.906;19.384;2023-04-01T05:19:16;96590.14;;;8.97;79.12
76815;BME280;65768;49.906;19.384;2023-04-01T05:21:45;96592.33;;;9.01;78.85
76815;BME280;65768;49.906;19.384;2023-04-01T05:24:14;96594.02;;;9.03;79.01
76815;BME280;65768;49.906;19.384;2023-04-01T05:26:42;96596.14;;;9.11;78.44
76815;BME280;65768;49.906;19.384;2023-04-01T05:29:11;96592.77;;;9.14;78.64
76815;BME280;65768;49.906;19.384;2023-04-01T05:31:40;96594.58;;;9.19;78.64
76815;BME280;65768;49.906;19.384;2023-04-01T05:34:08;96601.19;;;9.19;78.35
76815;BME280;65768;49.906;19.384;2023-04-01T05:36:40;96601.61;;;9.15;78.58
76815;BME280;65768;49.906;19.384;2023-04-01T05:39:10;96600.87;;;9.18;78.03
76815;BME280;65768;49.906;19.384;2023-04-01T05:41:40;96602.25;;;9.17;77.96
76815;BME280;65768;49.906;19.384;2023-04-01T05:44:11;96601.52;;;9.19;77.66
76815;BME280;65768;49.906;19.384;2023-04-01T05:46:41;96601.83;;;9.22;77.67
76815;BME280;65768;49.906;19.384;2023-04-01T05:49:11;96605.04;;;9.26;77.87
76815;BME280;65768;49.906;19.384;2023-04-01T05:51:39;96605.60;;;9.24;76.79
76815;BME280;65768;49.906;19.384;2023-04-01T05:54:09;96607.55;;;9.31;77.05
76815;BME280;65768;49.906;19.384;2023-04-01T05:56:38;96611.96;;;9.36;77.25
76815;BME280;65768;49.906;19.384;2023-04-01T05:59:10;96610.84;;;9.31;76.71
76815;BME280;65768;49.906;19.384;2023-04-01T06:01:40;96610.95;;;9.34;76.53
76815;BME280;65768;49.906;19.384;2023-04-01T06:04:14;96613.55;;;9.35;75.89
76815;BME280;65768;49.906;19.384;2023-04-01T06:06:44;96613.32;;;9.38;75.78
76815;BME280;65768;49.906;19.384;2023-04-01T06:09:16;96607.19;;;9.40;76.03
76815;BME280;65768;49.906;19.384;2023-04-01T06:15:33;96615.30;;;9.59;74.91
76815;BME280;65768;49.906;19.384;2023-04-01T06:21:22;96615.45;;;9.76;74.34
76815;BME280;65768;49.906;19.384;2023-04-01T06:24:30;96617.61;;;9.88;73.58
76815;BME280;65768;49.906;19.384;2023-04-01T06:27:45;96613.23;;;10.04;72.71
76815;BME280;65768;49.906;19.384;2023-04-01T06:30:58;96615.27;;;10.30;72.31
76815;BME280;65768;49.906;19.384;2023-04-01T06:42:27;96617.30;;;10.54;70.98
76815;BME280;65768;49.906;19.384;2023-04-01T06:50:36;96616.33;;;10.57;70.22
76815;BME280;65768;49.906;19.384;2023-04-01T06:53:38;96613.17;;;10.65;70.53
76815;BME280;65768;49.906;19.384;2023-04-01T06:56:17;96613.20;;;10.63;69.67
76815;BME280;65768;49.906;19.384;2023-04-01T06:58:51;96614.05;;;10.58;69.76
76815;BME280;65768;49.906;19.384;2023-04-01T07:01:55;96612.45;;;10.59;69.62
76815;BME280;65768;49.906;19.384;2023-04-01T07:04:31;96617.83;;;10.53;69.36
76815;BME280;65768;49.906;19.384;2023-04-01T07:10:17;96619.27;;;10.58;69.97
76815;BME280;65768;49.906;19.384;2023-04-01T07:12:50;96615.38;;;10.60;69.79
76815;BME280;65768;49.906;19.384;2023-04-01T07:15:51;96618.77;;;10.43;69.54
76815;BME280;65768;49.906;19.384;2023-04-01T07:18:23;96623.61;;;10.37;69.66
76815;BME280;65768;49.906;19.384;2023-04-01T07:20:53;96621.07;;;10.49;69.41
76815;BME280;65768;49.906;19.384;2023-04-01T07:23:25;96625.41;;;10.35;69.65
76815;BME280;65768;49.906;19.384;2023-04-01T07:26:17;96619.39;;;10.53;69.42
76815;BME280;65768;49.906;19.384;2023-04-01T07:28:46;96622.08;;;10.64;69.02
76815;BME280;65768;49.906;19.384;2023-04-01T07:34:28;96621.91;;;10.57;68.83
76815;BME280;65768;49.906;19.384;2023-04-01T07:37:06;96627.90;;;10.61;69.06
76815;BME280;65768;49.906;19.384;2023-04-01T07:46:19;96635.39;;;10.81;68.76
76815;BME280;65768;49.906;19.384;2023-04-01T07:49:21;96635.63;;;10.66;68.83
76815;BME280;65768;49.906;19.384;2023-04-01T07:51:59;96636.57;;;10.70;68.96
76815;BME280;65768;49.906;19.384;2023-04-01T07:57:19;96643.05;;;10.48;69.29
76815;BME280;65768;49.906;19.384;2023-04-01T08:06:00;96643.61;;;10.59;69.56
76815;BME280;65768;49.906;19.384;2023-04-01T08:09:06;96643.91;;;10.68;69.66
76815;BME280;65768;49.906;19.384;2023-04-01T08:12:04;96648.67;;;10.66;69.68
76815;BME280;65768;49.906;19.384;2023-04-01T08:17:36;96647.64;;;10.79;69.24
76815;BME280;65768;49.906;19.384;2023-04-01T08:23:31;96652.44;;;11.09;68.64
76815;BME280;65768;49.906;19.384;2023-04-01T08:26:15;96649.21;;;11.06;68.54
76815;BME280;65768;49.906;19.384;2023-04-01T08:28:54;96648.67;;;11.13;68.13
76815;BME280;65768;49.906;19.384;2023-04-01T08:34:03;96654.52;;;11.41;67.41
76815;BME280;65768;49.906;19.384;2023-04-01T08:36:40;96650.42;;;11.32;67.32
76815;BME280;65768;49.906;19.384;2023-04-01T08:39:48;96654.91;;;11.52;67.23
76815;BME280;65768;49.906;19.384;2023-04-01T08:42:35;96657.21;;;11.75;66.72
76815;BME280;65768;49.906;19.384;2023-04-01T08:45:21;96655.31;;;11.86;66.93
76815;BME280;65768;49.906;19.384;2023-04-01T08:51:06;96655.58;;;11.78;66.05
76815;BME280;65768;49.906;19.384;2023-04-01T08:56:40;96651.59;;;11.95;66.28
76815;BME280;65768;49.906;19.384;2023-04-01T08:59:21;96654.04;;;12.00;66.12
76815;BME280;65768;49.906;19.384;2023-04-01T09:08:16;96656.32;;;12.22;64.55
76815;BME280;65768;49.906;19.384;2023-04-01T09:13:58;96662.44;;;11.45;67.60
76815;BME280;65768;49.906;19.384;2023-04-01T09:26:24;96671.85;;;10.80;68.65
76815;BME280;65768;49.906;19.384;2023-04-01T09:32:00;96668.29;;;10.97;69.03
76815;BME280;65768;49.906;19.384;2023-04-01T09:40:17;96672.92;;;11.19;69.21
76815;BME280;65768;49.906;19.384;2023-04-01T09:46:28;96677.09;;;11.52;69.16
76815;BME280;65768;49.906;19.384;2023-04-01T09:49:34;96679.13;;;11.66;69.66
76815;BME280;65768;49.906;19.384;2023-04-01T09:52:10;96679.21;;;11.38;69.18
76815;BME280;65768;49.906;19.384;2023-04-01T10:03:24;96689.89;;;11.37;70.23
76815;BME280;65768;49.906;19.384;2023-04-01T10:41:03;96694.73;;;12.29;65.41
76815;BME280;65768;49.906;19.384;2023-04-01T10:52:57;96686.36;;;12.93;64.20
76815;BME280;65768;49.906;19.384;2023-04-01T10:59:07;96679.71;;;13.54;62.94
76815;BME280;65768;49.906;19.384;2023-04-01T11:05:13;96688.86;;;12.97;64.55
76815;BME280;65768;49.906;19.384;2023-04-01T11:11:57;96682.91;;;13.58;64.29
76815;BME280;65768;49.906;19.384;2023-04-01T11:15:02;96681.05;;;13.31;63.79
76815;BME280;65768;49.906;19.384;2023-04-01T11:24:43;96697.54;;;11.51;67.59
76815;BME280;65768;49.906;19.384;2023-04-01T11:27:25;96698.42;;;11.18;68.68
76815;BME280;65768;49.906;19.384;2023-04-01T11:30:25;96693.25;;;11.09;69.01
76815;BME280;65768;49.906;19.384;2023-04-01T11:33:20;96691.70;;;11.65;68.82
76815;BME280;65768;49.906;19.384;2023-04-01T11:36:16;96687.07;;;11.99;68.04
76815;BME280;65768;49.906;19.384;2023-04-01T11:39:14;96688.64;;;12.34;66.79
76815;BME280;65768;49.906;19.384;2023-04-01T11:42:22;96683.66;;;12.64;66.23
76815;BME280;65768;49.906;19.384;2023-04-01T11:45:40;96680.76;;;12.77;66.81
76815;BME280;65768;49.906;19.384;2023-04-01T11:48:19;96672.54;;;13.09;65.07
76815;BME280;65768;49.906;19.384;2023-04-01T11:53:51;96668.75;;;13.38;62.96
76815;BME280;65768;49.906;19.384;2023-04-01T12:06:25;96671.58;;;13.11;63.91
76815;BME280;65768;49.906;19.384;2023-04-01T12:18:02;96679.48;;;12.63;63.39
76815;BME280;65768;49.906;19.384;2023-04-01T12:20:54;96683.03;;;12.67;63.33
76815;BME280;65768;49.906;19.384;2023-04-01T12:23:45;96678.23;;;12.74;62.26
76815;BME280;65768;49.906;19.384;2023-04-01T12:41:12;96704.29;;;12.31;64.88
76815;BME280;65768;49.906;19.384;2023-04-01T12:56:30;96705.52;;;12.58;65.21
76815;BME280;65768;49.906;19.384;2023-04-01T13:02:32;96711.36;;;11.99;66.40
76815;BME280;65768;49.906;19.384;2023-04-01T13:05:41;96713.25;;;11.75;66.90
76815;BME280;65768;49.906;19.384;2023-04-01T13:08:27;96707.02;;;11.73;67.44
76815;BME280;65768;49.906;19.384;2023-04-01T13:23:10;96711.14;;;11.75;70.55
76815;BME280;65768;49.906;19.384;2023-04-01T13:26:13;96712.10;;;11.54;71.66
76815;BME280;65768;49.906;19.384;2023-04-01T13:29:06;96710.86;;;11.36;71.23
76815;BME280;65768;49.906;19.384;2023-04-01T13:32:18;96711.24;;;11.34;69.39
76815;BME280;65768;49.906;19.384;2023-04-01T13:38:05;96720.09;;;11.86;70.06
76815;BME280;65768;49.906;19.384;2023-04-01T13:41:06;96718.94;;;11.97;67.82
76815;BME280;65768;49.906;19.384;2023-04-01T13:43:49;96721.08;;;12.01;66.80
76815;BME280;65768;49.906;19.384;2023-04-01T13:46:54;96718.61;;;11.96;66.05
76815;BME280;65768;49.906;19.384;2023-04-01T13:50:08;96725.65;;;12.12;65.59
76815;BME280;65768;49.906;19.384;2023-04-01T14:09:29;96730.95;;;11.47;68.54
76815;BME280;65768;49.906;19.384;2023-04-01T14:15:41;96742.09;;;11.16;70.80
76815;BME280;65768;49.906;19.384;2023-04-01T14:21:41;96747.25;;;10.98;74.17
76815;BME280;65768;49.906;19.384;2023-04-01T14:24:45;96747.70;;;10.86;75.70
76815;BME280;65768;49.906;19.384;2023-04-01T14:27:31;96747.42;;;10.83;76.46
76815;BME280;65768;49.906;19.384;2023-04-01T14:33:21;96744.45;;;11.19;76.58
76815;BME280;65768;49.906;19.384;2023-04-01T14:39:22;96742.20;;;12.07;74.52
76815;BME280;65768;49.906;19.384;2023-04-01T14:43:03;96738.59;;;12.29;73.23
76815;BME280;65768;49.906;19.384;2023-04-01T14:46:10;96730.77;;;13.20;70.15
76815;BME280;65768;49.906;19.384;2023-04-01T14:51:33;96724.29;;;13.21;69.50
76815;BME280;65768;49.906;19.384;2023-04-01T14:56:44;96721.32;;;13.56;66.37
76815;BME280;65768;49.906;19.384;2023-04-01T14:59:48;96718.72;;;14.35;64.34
76815;BME280;65768;49.906;19.384;2023-04-01T15:02:59;96717.41;;;15.76;61.28
76815;BME280;65768;49.906;19.384;2023-04-01T15:08:48;96711.50;;;18.74;49.58
76815;BME280;65768;49.906;19.384;2023-04-01T15:11:34;96718.28;;;18.65;47.40
76815;BME280;65768;49.906;19.384;2023-04-01T15:19:55;96727.61;;;14.04;60.39
76815;BME280;65768;49.906;19.384;2023-04-01T15:28:28;96734.59;;;13.26;62.49
76815;BME280;65768;49.906;19.384;2023-04-01T15:43:42;96747.27;;;12.59;64.10
76815;BME280;65768;49.906;19.384;2023-04-01T15:46:25;96756.04;;;12.30;64.58
76815;BME280;65768;49.906;19.384;2023-04-01T16:00:42;96775.92;;;11.82;65.71
76815;BME280;65768;49.906;19.384;2023-04-01T16:12:04;96799.62;;;10.95;70.77
76815;BME280;65768;49.906;19.384;2023-04-01T16:17:51;96809.48;;;10.68;72.38
76815;BME280;65768;49.906;19.384;2023-04-01T16:20:51;96807.55;;;10.54;73.64
76815;BME280;65768;49.906;19.384;2023-04-01T16:23:51;96815.94;;;10.45;74.25
76815;BME280;65768;49.906;19.384;2023-04-01T16:26:52;96810.89;;;10.36;74.79
76815;BME280;65768;49.906;19.384;2023-04-01T16:29:36;96823.63;;;10.26;76.57
76815;BME280;65768;49.906;19.384;2023-04-01T16:32:29;96839.20;;;10.13;77.92
76815;BME280;65768;49.906;19.384;2023-04-01T16:38:24;96857.65;;;9.86;81.81
76815;BME280;65768;49.906;19.384;2023-04-01T16:43:55;96855.30;;;9.62;83.67
76815;BME280;65768;49.906;19.384;2023-04-01T16:46:34;96856.02;;;9.52;82.64
76815;BME280;65768;49.906;19.384;2023-04-01T16:51:57;96860.84;;;9.23;82.60
76815;BME280;65768;49.906;19.384;2023-04-01T16:57:50;96856.75;;;9.08;80.73
76815;BME280;65768;49.906;19.384;2023-04-01T17:00:28;96863.42;;;9.03;81.15
76815;BME280;65768;49.906;19.384;2023-04-01T17:03:15;96864.71;;;8.99;83.11
76815;BME280;65768;49.906;19.384;2023-04-01T17:09:00;96873.33;;;8.93;82.48
76815;BME280;65768;49.906;19.384;2023-04-01T17:11:56;96878.06;;;8.90;82.84
76815;BME280;65768;49.906;19.384;2023-04-01T17:15:05;96881.41;;;8.86;82.95
76815;BME280;65768;49.906;19.384;2023-04-01T17:17:55;96881.66;;;8.80;83.80
76815;BME280;65768;49.906;19.384;2023-04-01T17:20:41;96883.97;;;8.77;83.95
76815;BME280;65768;49.906;19.384;2023-04-01T17:26:23;96891.10;;;8.76;82.81
76815;BME280;65768;49.906;19.384;2023-04-01T17:31:57;96901.74;;;8.73;83.61
76815;BME280;65768;49.906;19.384;2023-04-01T17:35:09;96902.34;;;8.69;84.10
76815;BME280;65768;49.906;19.384;2023-04-01T17:37:59;96909.48;;;8.66;85.14
76815;BME280;65768;49.906;19.384;2023-04-01T17:47:22;96912.23;;;8.69;84.51
76815;BME280;65768;49.906;19.384;2023-04-01T17:56:09;96923.20;;;8.79;84.53
76815;BME280;65768;49.906;19.384;2023-04-01T18:01:49;96929.64;;;8.79;84.79
76815;BME280;65768;49.906;19.384;2023-04-01T18:04:47;96934.14;;;8.79;85.12
76815;BME280;65768;49.906;19.384;2023-04-01T18:11:00;96945.56;;;8.84;84.76
76815;BME280;65768;49.906;19.384;2023-04-01T18:22:26;96967.77;;;8.86;85.62
76815;BME280;65768;49.906;19.384;2023-04-01T18:25:37;96971.44;;;8.85;85.90
76815;BME280;65768;49.906;19.384;2023-04-01T18:28:24;96975.95;;;8.86;85.95
76815;BME280;65768;49.906;19.384;2023-04-01T18:33:59;96979.16;;;8.92;85.47
76815;BME280;65768;49.906;19.384;2023-04-01T18:39:23;96980.52;;;8.93;85.21
76815;BME280;65768;49.906;19.384;2023-04-01T18:42:14;96987.43;;;8.97;84.98
76815;BME280;65768;49.906;19.384;2023-04-01T18:44:53;96989.50;;;8.98;84.48
76815;BME280;65768;49.906;19.384;2023-04-01T18:47:55;96992.25;;;9.02;84.70
76815;BME280;65768;49.906;19.384;2023-04-01T18:50:55;96991.73;;;9.01;84.86
76815;BME280;65768;49.906;19.384;2023-04-01T18:53:58;96996.77;;;9.01;84.63
76815;BME280;65768;49.906;19.384;2023-04-01T18:56:37;96997.59;;;9.05;84.31
76815;BME280;65768;49.906;19.384;2023-04-01T19:05:12;97001.36;;;9.09;84.75
76815;BME280;65768;49.906;19.384;2023-04-01T19:07:53;97004.66;;;9.09;84.38
76815;BME280;65768;49.906;19.384;2023-04-01T19:16:51;97007.28;;;9.08;85.26
76815;BME280;65768;49.906;19.384;2023-04-01T19:19:45;97012.66;;;9.08;85.37
76815;BME280;65768;49.906;19.384;2023-04-01T19:25:48;97020.52;;;9.06;85.51
76815;BME280;65768;49.906;19.384;2023-04-01T19:28:29;97024.70;;;9.05;85.31
76815;BME280;65768;49.906;19.384;2023-04-01T19:37:23;97036.23;;;9.00;85.53
76815;BME280;65768;49.906;19.384;2023-04-01T19:42:55;97037.88;;;8.94;84.92
76815;BME280;65768;49.906;19.384;2023-04-01T19:51:37;97049.25;;;8.89;86.58
76815;BME280;65768;49.906;19.384;2023-04-01T19:57:17;97053.48;;;8.82;89.01
76815;BME280;65768;49.906;19.384;2023-04-01T20:00:24;97051.98;;;8.77;89.53
76815;BME280;65768;49.906;19.384;2023-04-01T20:20:00;97071.52;;;8.54;92.12
76815;BME280;65768;49.906;19.384;2023-04-01T20:26:12;97071.06;;;8.46;92.39
76815;BME280;65768;49.906;19.384;2023-04-01T20:28:57;97073.18;;;8.43;92.67
76815;BME280;65768;49.906;19.384;2023-04-01T20:31:37;97073.35;;;8.43;92.48
76815;BME280;65768;49.906;19.384;2023-04-01T20:34:21;97078.40;;;8.42;92.22
76815;BME280;65768;49.906;19.384;2023-04-01T20:40:17;97086.38;;;8.43;92.42
76815;BME280;65768;49.906;19.384;2023-04-01T20:52:32;97095.02;;;8.47;92.35
76815;BME280;65768;49.906;19.384;2023-04-01T20:55:30;97094.35;;;8.46;91.93
76815;BME280;65768;49.906;19.384;2023-04-01T20:58:51;97101.65;;;8.44;92.07
76815;BME280;65768;49.906;19.384;2023-04-01T21:02:14;97096.45;;;8.43;91.59
76815;BME280;65768;49.906;19.384;2023-04-01T21:07:52;97100.81;;;8.41;91.31
76815;BME280;65768;49.906;19.384;2023-04-01T21:16:44;97103.44;;;8.38;91.28
76815;BME280;65768;49.906;19.384;2023-04-01T21:23:03;97106.21;;;8.38;91.17
76815;BME280;65768;49.906;19.384;2023-04-01T21:46:11;97119.04;;;8.38;91.06
76815;BME280;65768;49.906;19.384;2023-04-01T21:49:16;97120.30;;;8.39;90.55
76815;BME280;65768;49.906;19.384;2023-04-01T21:55:20;97123.58;;;8.38;90.52
76815;BME280;65768;49.906;19.384;2023-04-01T22:04:42;97130.69;;;8.38;91.14
76815;BME280;65768;49.906;19.384;2023-04-01T22:07:21;97130.00;;;8.38;91.32
76815;BME280;65768;49.906;19.384;2023-04-01T22:13:32;97133.29;;;8.35;91.52
76815;BME280;65768;49.906;19.384;2023-04-01T22:28:05;97134.35;;;8.34;91.67
76815;BME280;65768;49.906;19.384;2023-04-01T22:30:52;97139.03;;;8.35;91.36
76815;BME280;65768;49.906;19.384;2023-04-01T22:33:38;97141.97;;;8.35;91.95
76815;BME280;65768;49.906;19.384;2023-04-01T22:36:12;97143.19;;;8.37;91.86